Cape Carteret, North Carolina
Current Conditions -  °F | °C
As of 11:57 AM on Thursday 23 Oct 2014 (Local Time) from KNJM Reporting Station
Clear Clear  
Wind Chill: 63°   Ceiling: Unl
Heat Index: 63°   Visibility: 10mi
Dew Point: 45°   Wind: 8mph
Humidity: 52%   Direction: 320°NW
Pressure: 29.98"   Gusts: NA
Location:  34.7017°N, 77.1399°W
Report Text: KNJM 231557Z 32007KT 10SM CLR 17/07 A2998 RMK AO2 SLP155 T01720072 $
Loading
Personal Weather Stations






























Interactive Weather Map
Tropical Storm Tracking
New forecast layout! Learn more

10-Day Weather Forecast

Advertisements
Track Severe Weather on mobile